sensor_id;sensor_type;location;lat;lon;timestamp;pressure;altitude;pressure_sealevel;temperature;humidity
68230;BME280;55048;52.220;5.160;2023-08-06T00:02:17;100359.28;;;17.03;100.00
68230;BME280;55048;52.220;5.160;2023-08-06T00:04:43;100368.78;;;17.15;100.00
68230;BME280;55048;52.220;5.160;2023-08-06T00:07:08;100362.38;;;17.11;99.88
68230;BME280;55048;52.220;5.160;2023-08-06T00:09:33;100370.16;;;17.12;99.96
68230;BME280;55048;52.220;5.160;2023-08-06T00:11:59;100368.84;;;17.09;100.00
68230;BME280;55048;52.220;5.160;2023-08-06T00:14:24;100361.44;;;17.01;100.00
68230;BME280;55048;52.220;5.160;2023-08-06T00:16:50;100357.09;;;17.05;100.00
68230;BME280;55048;52.220;5.160;2023-08-06T00:19:15;100372.06;;;17.12;100.00
68230;BME280;55048;52.220;5.160;2023-08-06T00:21:40;100359.28;;;17.03;99.92
68230;BME280;55048;52.220;5.160;2023-08-06T00:24:06;100368.63;;;17.06;100.00
68230;BME280;55048;52.220;5.160;2023-08-06T00:26:31;100370.25;;;17.07;100.00
68230;BME280;55048;52.220;5.160;2023-08-06T00:28:57;100368.13;;;17.04;100.00
68230;BME280;55048;52.220;5.160;2023-08-06T00:31:23;100365.22;;;17.00;100.00
68230;BME280;55048;52.220;5.160;2023-08-06T00:33:48;100371.25;;;17.11;100.00
68230;BME280;55048;52.220;5.160;2023-08-06T00:36:14;100367.25;;;17.08;100.00
68230;BME280;55048;52.220;5.160;2023-08-06T00:38:39;100373.91;;;17.11;100.00
68230;BME280;55048;52.220;5.160;2023-08-06T00:41:05;100373.34;;;17.14;100.00
68230;BME280;55048;52.220;5.160;2023-08-06T00:43:30;100359.50;;;17.07;100.00
68230;BME280;55048;52.220;5.160;2023-08-06T00:45:56;100373.88;;;17.16;100.00
68230;BME280;55048;52.220;5.160;2023-08-06T00:48:21;100351.22;;;17.03;100.00
68230;BME280;55048;52.220;5.160;2023-08-06T00:50:47;100371.47;;;17.15;100.00
68230;BME280;55048;52.220;5.160;2023-08-06T00:53:12;100360.28;;;17.07;100.00
68230;BME280;55048;52.220;5.160;2023-08-06T00:55:41;100359.50;;;17.07;100.00
68230;BME280;55048;52.220;5.160;2023-08-06T00:58:09;100358.97;;;17.05;100.00
68230;BME280;55048;52.220;5.160;2023-08-06T01:00:34;100357.69;;;17.02;100.00
68230;BME280;55048;52.220;5.160;2023-08-06T01:03:00;100353.09;;;17.03;100.00
68230;BME280;55048;52.220;5.160;2023-08-06T01:05:27;100369.41;;;17.06;100.00
68230;BME280;55048;52.220;5.160;2023-08-06T01:15:55;100364.56;;;17.08;100.00
68230;BME280;55048;52.220;5.160;2023-08-06T01:18:24;100358.09;;;17.09;100.00
68230;BME280;55048;52.220;5.160;2023-08-06T01:20:49;100346.19;;;16.97;99.91
68230;BME280;55048;52.220;5.160;2023-08-06T01:23:15;100347.00;;;16.97;100.00
68230;BME280;55048;52.220;5.160;2023-08-06T01:26:10;100359.34;;;16.98;99.92
68230;BME280;55048;52.220;5.160;2023-08-06T01:29:11;100358.56;;;16.98;99.93
68230;BME280;55048;52.220;5.160;2023-08-06T01:31:39;100356.22;;;16.91;100.00
68230;BME280;55048;52.220;5.160;2023-08-06T01:34:10;100366.69;;;16.93;100.00
68230;BME280;55048;52.220;5.160;2023-08-06T01:36:38;100347.50;;;16.80;100.00
68230;BME280;55048;52.220;5.160;2023-08-06T01:39:04;100357.38;;;16.85;100.00
68230;BME280;55048;52.220;5.160;2023-08-06T01:41:30;100347.22;;;16.82;100.00
68230;BME280;55048;52.220;5.160;2023-08-06T01:43:56;100352.56;;;16.82;100.00
68230;BME280;55048;52.220;5.160;2023-08-06T01:46:22;100364.03;;;16.88;100.00
68230;BME280;55048;52.220;5.160;2023-08-06T01:48:47;100359.13;;;16.76;100.00
68230;BME280;55048;52.220;5.160;2023-08-06T01:51:13;100359.13;;;16.76;100.00
68230;BME280;55048;52.220;5.160;2023-08-06T01:53:38;100373.03;;;16.78;100.00
68230;BME280;55048;52.220;5.160;2023-08-06T01:56:03;100365.28;;;16.76;100.00
68230;BME280;55048;52.220;5.160;2023-08-06T01:58:29;100361.56;;;16.72;100.00
68230;BME280;55048;52.220;5.160;2023-08-06T02:00:54;100353.22;;;16.74;100.00
68230;BME280;55048;52.220;5.160;2023-08-06T02:03:19;100358.75;;;16.82;100.00
68230;BME280;55048;52.220;5.160;2023-08-06T02:05:47;100365.44;;;16.85;100.00
68230;BME280;55048;52.220;5.160;2023-08-06T02:08:13;100349.66;;;16.78;100.00
68230;BME280;55048;52.220;5.160;2023-08-06T02:10:38;100363.06;;;16.83;100.00
68230;BME280;55048;52.220;5.160;2023-08-06T02:13:06;100362.81;;;16.80;100.00
68230;BME280;55048;52.220;5.160;2023-08-06T02:15:31;100351.34;;;16.74;100.00
68230;BME280;55048;52.220;5.160;2023-08-06T02:17:57;100380.53;;;16.81;100.00
68230;BME280;55048;52.220;5.160;2023-08-06T02:20:23;100378.41;;;16.78;100.00
68230;BME280;55048;52.220;5.160;2023-08-06T02:22:48;100375.28;;;16.71;100.00
68230;BME280;55048;52.220;5.160;2023-08-06T02:25:14;100361.84;;;16.71;100.00
68230;BME280;55048;52.220;5.160;2023-08-06T02:27:41;100377.28;;;16.84;100.00
68230;BME280;55048;52.220;5.160;2023-08-06T02:30:07;100356.13;;;16.77;100.00
68230;BME280;55048;52.220;5.160;2023-08-06T02:32:33;100366.00;;;16.82;100.00
68230;BME280;55048;52.220;5.160;2023-08-06T02:35:01;100363.69;;;16.75;100.00
68230;BME280;55048;52.220;5.160;2023-08-06T02:37:27;100361.50;;;16.77;100.00
68230;BME280;55048;52.220;5.160;2023-08-06T02:39:52;100371.84;;;16.89;100.00
68230;BME280;55048;52.220;5.160;2023-08-06T02:42:18;100370.44;;;16.92;100.00
68230;BME280;55048;52.220;5.160;2023-08-06T02:44:43;100357.16;;;16.81;100.00
68230;BME280;55048;52.220;5.160;2023-08-06T02:47:09;100364.28;;;16.91;100.00
68230;BME280;55048;52.220;5.160;2023-08-06T02:49:34;100361.09;;;16.89;100.00
68230;BME280;55048;52.220;5.160;2023-08-06T02:52:00;100363.94;;;16.98;100.00
68230;BME280;55048;52.220;5.160;2023-08-06T02:54:25;100365.28;;;16.95;100.00
68230;BME280;55048;52.220;5.160;2023-08-06T02:56:51;100367.97;;;16.95;100.00
68230;BME280;55048;52.220;5.160;2023-08-06T02:59:23;100360.00;;;16.90;100.00
68230;BME280;55048;52.220;5.160;2023-08-06T03:02:00;100347.75;;;16.84;100.00
68230;BME280;55048;52.220;5.160;2023-08-06T03:04:35;100348.31;;;16.81;100.00
68230;BME280;55048;52.220;5.160;2023-08-06T03:07:00;100350.69;;;16.82;100.00
68230;BME280;55048;52.220;5.160;2023-08-06T03:09:34;100349.41;;;16.80;100.00
68230;BME280;55048;52.220;5.160;2023-08-06T03:11:59;100356.00;;;16.88;100.00
68230;BME280;55048;52.220;5.160;2023-08-06T03:14:25;100359.69;;;16.92;100.00
68230;BME280;55048;52.220;5.160;2023-08-06T03:16:51;100353.81;;;16.90;100.00
68230;BME280;55048;52.220;5.160;2023-08-06T03:19:18;100349.81;;;16.87;100.00
68230;BME280;55048;52.220;5.160;2023-08-06T03:21:43;100344.38;;;16.92;100.00
68230;BME280;55048;52.220;5.160;2023-08-06T03:24:09;100358.34;;;16.94;100.00
68230;BME280;55048;52.220;5.160;2023-08-06T03:26:37;100353.31;;;16.88;100.00
68230;BME280;55048;52.220;5.160;2023-08-06T03:29:03;100358.81;;;16.96;100.00
68230;BME280;55048;52.220;5.160;2023-08-06T03:31:31;100359.50;;;16.88;100.00
68230;BME280;55048;52.220;5.160;2023-08-06T03:33:57;100361.59;;;16.91;100.00
68230;BME280;55048;52.220;5.160;2023-08-06T03:36:26;100348.53;;;16.85;100.00
68230;BME280;55048;52.220;5.160;2023-08-06T03:38:52;100369.56;;;16.96;100.00
68230;BME280;55048;52.220;5.160;2023-08-06T03:41:17;100365.59;;;16.94;100.00
68230;BME280;55048;52.220;5.160;2023-08-06T03:43:43;100358.19;;;16.86;100.00
68230;BME280;55048;52.220;5.160;2023-08-06T03:46:15;100363.19;;;16.92;100.00
68230;BME280;55048;52.220;5.160;2023-08-06T03:48:40;100343.44;;;16.83;100.00
68230;BME280;55048;52.220;5.160;2023-08-06T03:51:06;100363.19;;;16.92;100.00
68230;BME280;55048;52.220;5.160;2023-08-06T03:53:31;100359.44;;;16.93;100.00
68230;BME280;55048;52.220;5.160;2023-08-06T03:55:57;100373.88;;;16.97;100.00
68230;BME280;55048;52.220;5.160;2023-08-06T03:58:25;100366.09;;;16.96;100.00
68230;BME280;55048;52.220;5.160;2023-08-06T04:00:59;100368.78;;;16.96;100.00
68230;BME280;55048;52.220;5.160;2023-08-06T04:03:26;100363.94;;;16.98;100.00
68230;BME280;55048;52.220;5.160;2023-08-06T04:05:52;100353.03;;;16.89;100.00
68230;BME280;55048;52.220;5.160;2023-08-06T04:08:19;100362.84;;;16.99;100.00
68230;BME280;55048;52.220;5.160;2023-08-06T04:10:44;100359.84;;;17.00;100.00
68230;BME280;55048;52.220;5.160;2023-08-06T04:13:10;100364.41;;;17.00;100.00
68230;BME280;55048;52.220;5.160;2023-08-06T04:15:35;100354.31;;;16.92;100.00
68230;BME280;55048;52.220;5.160;2023-08-06T04:18:00;100358.34;;;16.94;100.00
68230;BME280;55048;52.220;5.160;2023-08-06T04:20:26;100363.41;;;16.96;100.00
68230;BME280;55048;52.220;5.160;2023-08-06T04:22:54;100355.72;;;16.89;100.00
68230;BME280;55048;52.220;5.160;2023-08-06T04:25:20;100372.72;;;17.03;100.00
68230;BME280;55048;52.220;5.160;2023-08-06T04:27:47;100370.09;;;16.98;100.00
68230;BME280;55048;52.220;5.160;2023-08-06T04:30:13;100370.91;;;16.99;100.00
68230;BME280;55048;52.220;5.160;2023-08-06T04:32:39;100383.16;;;17.05;100.00
68230;BME280;55048;52.220;5.160;2023-08-06T04:35:05;100383.72;;;17.02;100.00
68230;BME280;55048;52.220;5.160;2023-08-06T04:37:31;100378.94;;;16.99;100.00
68230;BME280;55048;52.220;5.160;2023-08-06T04:39:57;100372.06;;;16.93;100.00
68230;BME280;55048;52.220;5.160;2023-08-06T04:42:22;100386.72;;;17.00;100.00
68230;BME280;55048;52.220;5.160;2023-08-06T04:44:48;100379.25;;;16.97;100.00
68230;BME280;55048;52.220;5.160;2023-08-06T04:47:14;100379.53;;;16.96;100.00
68230;BME280;55048;52.220;5.160;2023-08-06T04:49:39;100392.53;;;17.07;100.00
68230;BME280;55048;52.220;5.160;2023-08-06T04:52:05;100383.53;;;16.98;100.00
68230;BME280;55048;52.220;5.160;2023-08-06T04:54:31;100396.88;;;17.03;100.00
68230;BME280;55048;52.220;5.160;2023-08-06T04:56:56;100389.09;;;17.02;100.00
68230;BME280;55048;52.220;5.160;2023-08-06T04:59:22;100397.91;;;17.07;100.00
68230;BME280;55048;52.220;5.160;2023-08-06T05:01:47;100405.44;;;17.05;100.00
68230;BME280;55048;52.220;5.160;2023-08-06T05:04:12;100401.97;;;17.05;100.00
68230;BME280;55048;52.220;5.160;2023-08-06T05:06:38;100401.16;;;17.04;100.00
68230;BME280;55048;52.220;5.160;2023-08-06T05:09:04;100403.78;;;17.09;100.00
68230;BME280;55048;52.220;5.160;2023-08-06T05:11:30;100389.31;;;17.05;100.00
68230;BME280;55048;52.220;5.160;2023-08-06T05:13:55;100395.50;;;17.06;100.00
68230;BME280;55048;52.220;5.160;2023-08-06T05:16:20;100402.19;;;17.08;100.00
68230;BME280;55048;52.220;5.160;2023-08-06T05:18:46;100416.41;;;17.09;100.00
68230;BME280;55048;52.220;5.160;2023-08-06T05:21:11;100402.03;;;17.00;100.00
68230;BME280;55048;52.220;5.160;2023-08-06T05:23:37;100397.22;;;16.97;100.00
68230;BME280;55048;52.220;5.160;2023-08-06T05:26:02;100423.81;;;16.98;100.00
68230;BME280;55048;52.220;5.160;2023-08-06T05:28:28;100422.50;;;16.96;100.00
68230;BME280;55048;52.220;5.160;2023-08-06T05:30:53;100418.53;;;16.93;100.00
68230;BME280;55048;52.220;5.160;2023-08-06T05:33:19;100429.03;;;16.90;100.00
68230;BME280;55048;52.220;5.160;2023-08-06T05:35:44;100438.34;;;16.97;100.00
68230;BME280;55048;52.220;5.160;2023-08-06T05:38:10;100445.31;;;16.98;100.00
68230;BME280;55048;52.220;5.160;2023-08-06T05:40:36;100430.91;;;16.89;100.00
68230;BME280;55048;52.220;5.160;2023-08-06T05:43:01;100434.91;;;16.92;100.00
68230;BME280;55048;52.220;5.160;2023-08-06T05:45:27;100453.63;;;16.97;100.00
68230;BME280;55048;52.220;5.160;2023-08-06T05:47:52;100431.56;;;16.81;100.00
68230;BME280;55048;52.220;5.160;2023-08-06T05:50:19;100445.16;;;16.90;100.00
68230;BME280;55048;52.220;5.160;2023-08-06T05:52:45;100454.22;;;16.94;100.00
68230;BME280;55048;52.220;5.160;2023-08-06T05:55:10;100456.13;;;16.93;100.00
68230;BME280;55048;52.220;5.160;2023-08-06T05:57:35;100446.56;;;16.82;100.00
68230;BME280;55048;52.220;5.160;2023-08-06T06:00:02;100458.88;;;16.88;100.00
68230;BME280;55048;52.220;5.160;2023-08-06T06:02:37;100467.72;;;16.89;100.00
68230;BME280;55048;52.220;5.160;2023-08-06T06:05:03;100462.63;;;16.87;100.00
68230;BME280;55048;52.220;5.160;2023-08-06T06:07:28;100458.25;;;16.72;100.00
68230;BME280;55048;52.220;5.160;2023-08-06T06:09:54;100474.53;;;16.81;100.00
68230;BME280;55048;52.220;5.160;2023-08-06T06:12:19;100471.19;;;16.65;100.00
68230;BME280;55048;52.220;5.160;2023-08-06T06:14:47;100462.72;;;16.53;100.00
68230;BME280;55048;52.220;5.160;2023-08-06T06:17:13;100469.81;;;16.44;100.00
68230;BME280;55048;52.220;5.160;2023-08-06T06:19:38;100467.97;;;16.39;100.00
68230;BME280;55048;52.220;5.160;2023-08-06T06:22:03;100471.00;;;16.32;100.00
68230;BME280;55048;52.220;5.160;2023-08-06T06:24:29;100468.53;;;16.36;100.00
68230;BME280;55048;52.220;5.160;2023-08-06T06:26:55;100472.84;;;16.37;100.00
68230;BME280;55048;52.220;5.160;2023-08-06T06:29:20;100474.69;;;16.37;100.00
68230;BME280;55048;52.220;5.160;2023-08-06T06:31:46;100479.13;;;16.22;100.00
68230;BME280;55048;52.220;5.160;2023-08-06T06:34:11;100498.56;;;16.38;100.00
68230;BME280;55048;52.220;5.160;2023-08-06T06:36:37;100483.94;;;16.25;100.00
68230;BME280;55048;52.220;5.160;2023-08-06T06:39:02;100496.75;;;16.33;100.00
68230;BME280;55048;52.220;5.160;2023-08-06T06:41:28;100498.75;;;16.18;100.00
68230;BME280;55048;52.220;5.160;2023-08-06T06:44:03;100484.13;;;16.05;100.00
68230;BME280;55048;52.220;5.160;2023-08-06T06:46:28;100494.31;;;16.03;100.00
68230;BME280;55048;52.220;5.160;2023-08-06T06:48:54;100488.47;;;15.96;100.00
68230;BME280;55048;52.220;5.160;2023-08-06T06:51:19;100494.16;;;15.89;100.00
68230;BME280;55048;52.220;5.160;2023-08-06T06:53:44;100513.88;;;16.03;100.00
68230;BME280;55048;52.220;5.160;2023-08-06T06:56:10;100508.53;;;16.03;100.00
68230;BME280;55048;52.220;5.160;2023-08-06T06:58:35;100500.56;;;15.93;100.00
68230;BME280;55048;52.220;5.160;2023-08-06T07:01:01;100520.38;;;15.97;100.00
68230;BME280;55048;52.220;5.160;2023-08-06T07:03:26;100500.75;;;16.02;100.00
68230;BME280;55048;52.220;5.160;2023-08-06T07:05:56;100506.63;;;16.04;100.00
68230;BME280;55048;52.220;5.160;2023-08-06T07:08:22;100515.69;;;16.13;100.00
68230;BME280;55048;52.220;5.160;2023-08-06T07:10:47;100495.16;;;15.98;100.00
68230;BME280;55048;52.220;5.160;2023-08-06T07:13:12;100500.44;;;16.08;100.00
68230;BME280;55048;52.220;5.160;2023-08-06T07:15:38;100514.84;;;16.18;100.00
68230;BME280;55048;52.220;5.160;2023-08-06T07:18:03;100509.22;;;16.19;100.00
68230;BME280;55048;52.220;5.160;2023-08-06T07:20:28;100515.97;;;16.12;100.00
68230;BME280;55048;52.220;5.160;2023-08-06T07:22:58;100514.38;;;16.11;100.00
68230;BME280;55048;52.220;5.160;2023-08-06T07:25:23;100527.25;;;16.08;100.00
68230;BME280;55048;52.220;5.160;2023-08-06T07:27:49;100513.16;;;15.93;100.00
68230;BME280;55048;52.220;5.160;2023-08-06T07:30:14;100531.66;;;15.94;100.00
68230;BME280;55048;52.220;5.160;2023-08-06T07:32:40;100520.25;;;15.78;100.00
68230;BME280;55048;52.220;5.160;2023-08-06T07:35:05;100543.03;;;15.81;100.00
68230;BME280;55048;52.220;5.160;2023-08-06T07:37:33;100539.50;;;15.86;100.00
68230;BME280;55048;52.220;5.160;2023-08-06T07:39:58;100537.75;;;15.61;100.00
68230;BME280;55048;52.220;5.160;2023-08-06T07:42:24;100547.13;;;15.63;100.00
68230;BME280;55048;52.220;5.160;2023-08-06T07:44:52;100561.06;;;15.65;100.00
68230;BME280;55048;52.220;5.160;2023-08-06T07:47:18;100534.94;;;15.31;100.00
68230;BME280;55048;52.220;5.160;2023-08-06T07:49:44;100539.25;;;15.27;100.00
68230;BME280;55048;52.220;5.160;2023-08-06T07:52:09;100539.00;;;15.24;100.00
68230;BME280;55048;52.220;5.160;2023-08-06T07:54:35;100551.53;;;15.34;100.00
68230;BME280;55048;52.220;5.160;2023-08-06T07:57:00;100554.19;;;15.44;100.00
68230;BME280;55048;52.220;5.160;2023-08-06T07:59:25;100538.13;;;15.39;100.00
68230;BME280;55048;52.220;5.160;2023-08-06T08:01:51;100553.13;;;15.45;100.00
68230;BME280;55048;52.220;5.160;2023-08-06T08:04:16;100528.72;;;15.46;100.00
68230;BME280;55048;52.220;5.160;2023-08-06T08:06:41;100545.81;;;15.55;100.00
68230;BME280;55048;52.220;5.160;2023-08-06T08:09:07;100532.13;;;15.57;100.00
68230;BME280;55048;52.220;5.160;2023-08-06T08:11:32;100544.69;;;15.62;100.00
68230;BME280;55048;52.220;5.160;2023-08-06T08:13:58;100517.97;;;15.51;100.00
68230;BME280;55048;52.220;5.160;2023-08-06T08:16:23;100539.81;;;15.79;100.00
68230;BME280;55048;52.220;5.160;2023-08-06T08:18:49;100545.75;;;15.71;100.00
68230;BME280;55048;52.220;5.160;2023-08-06T08:21:14;100556.16;;;15.82;100.00
68230;BME280;55048;52.220;5.160;2023-08-06T08:23:40;100551.91;;;15.76;100.00
68230;BME280;55048;52.220;5.160;2023-08-06T08:26:07;100559.06;;;15.91;100.00
68230;BME280;55048;52.220;5.160;2023-08-06T08:28:32;100551.59;;;15.83;100.00
68230;BME280;55048;52.220;5.160;2023-08-06T08:30:57;100558.47;;;15.94;100.00
68230;BME280;55048;52.220;5.160;2023-08-06T08:33:23;100563.31;;;15.92;100.00
68230;BME280;55048;52.220;5.160;2023-08-06T08:35:48;100557.47;;;15.85;100.00
68230;BME280;55048;52.220;5.160;2023-08-06T08:38:14;100565.22;;;15.92;100.00
68230;BME280;55048;52.220;5.160;2023-08-06T08:40:45;100558.00;;;15.87;100.00
68230;BME280;55048;52.220;5.160;2023-08-06T08:43:12;100566.69;;;16.08;100.00
68230;BME280;55048;52.220;5.160;2023-08-06T08:45:39;100580.69;;;16.05;100.00
68230;BME280;55048;52.220;5.160;2023-08-06T08:48:06;100562.47;;;16.02;100.00
68230;BME280;55048;52.220;5.160;2023-08-06T08:50:32;100567.34;;;15.90;100.00
68230;BME280;55048;52.220;5.160;2023-08-06T08:52:58;100564.22;;;16.17;100.00
68230;BME280;55048;52.220;5.160;2023-08-06T08:55:23;100574.81;;;16.37;100.00
68230;BME280;55048;52.220;5.160;2023-08-06T08:57:48;100559.22;;;16.39;100.00
68230;BME280;55048;52.220;5.160;2023-08-06T09:00:14;100575.41;;;16.58;100.00
68230;BME280;55048;52.220;5.160;2023-08-06T09:02:40;100569.81;;;16.54;100.00
68230;BME280;55048;52.220;5.160;2023-08-06T09:05:07;100573.59;;;16.82;100.00
68230;BME280;55048;52.220;5.160;2023-08-06T09:07:38;100585.69;;;16.85;100.00
68230;BME280;55048;52.220;5.160;2023-08-06T09:10:07;100598.50;;;16.93;100.00
68230;BME280;55048;52.220;5.160;2023-08-06T09:12:35;100580.25;;;16.90;100.00
68230;BME280;55048;52.220;5.160;2023-08-06T09:15:00;100601.97;;;16.94;100.00
68230;BME280;55048;52.220;5.160;2023-08-06T09:17:28;100592.63;;;16.86;100.00
68230;BME280;55048;52.220;5.160;2023-08-06T09:19:54;100596.00;;;16.97;100.00
68230;BME280;55048;52.220;5.160;2023-08-06T09:22:20;100613.75;;;16.98;100.00
68230;BME280;55048;52.220;5.160;2023-08-06T09:24:45;100620.44;;;17.00;100.00
68230;BME280;55048;52.220;5.160;2023-08-06T09:27:12;100616.75;;;16.91;100.00
68230;BME280;55048;52.220;5.160;2023-08-06T09:29:45;100612.47;;;16.90;100.00
68230;BME280;55048;52.220;5.160;2023-08-06T09:32:12;100598.06;;;16.81;100.00
68230;BME280;55048;52.220;5.160;2023-08-06T09:34:43;100614.94;;;16.87;100.00
68230;BME280;55048;52.220;5.160;2023-08-06T09:37:09;100629.69;;;16.89;100.00
68230;BME280;55048;52.220;5.160;2023-08-06T09:39:39;100640.66;;;16.93;100.00
68230;BME280;55048;52.220;5.160;2023-08-06T09:42:06;100627.81;;;16.90;100.00
68230;BME280;55048;52.220;5.160;2023-08-06T09:44:33;100643.31;;;16.98;100.00
68230;BME280;55048;52.220;5.160;2023-08-06T09:47:00;100624.41;;;16.79;100.00
68230;BME280;55048;52.220;5.160;2023-08-06T09:49:40;100648.28;;;16.80;100.00
68230;BME280;55048;52.220;5.160;2023-08-06T09:52:11;100642.69;;;16.77;100.00
68230;BME280;55048;52.220;5.160;2023-08-06T09:54:37;100648.78;;;16.48;100.00
68230;BME280;55048;52.220;5.160;2023-08-06T09:57:03;100649.75;;;16.63;100.00
68230;BME280;55048;52.220;5.160;2023-08-06T09:59:29;100649.56;;;16.54;100.00
68230;BME280;55048;52.220;5.160;2023-08-06T10:01:56;100652.22;;;16.54;100.00
68230;BME280;55048;52.220;5.160;2023-08-06T10:04:21;100648.84;;;16.43;100.00
68230;BME280;55048;52.220;5.160;2023-08-06T10:06:48;100646.41;;;16.47;100.00
68230;BME280;55048;52.220;5.160;2023-08-06T10:09:13;100643.47;;;16.43;100.00
68230;BME280;55048;52.220;5.160;2023-08-06T10:11:39;100654.00;;;16.35;100.00
68230;BME280;55048;52.220;5.160;2023-08-06T10:14:08;100644.81;;;16.41;100.00
68230;BME280;55048;52.220;5.160;2023-08-06T10:16:36;100659.06;;;16.36;100.00
68230;BME280;55048;52.220;5.160;2023-08-06T10:19:03;100644.34;;;16.33;100.00
68230;BME280;55048;52.220;5.160;2023-08-06T10:21:31;100652.50;;;16.18;100.00
68230;BME280;55048;52.220;5.160;2023-08-06T10:23:56;100659.78;;;16.07;100.00
68230;BME280;55048;52.220;5.160;2023-08-06T10:26:28;100666.28;;;16.01;100.00
68230;BME280;55048;52.220;5.160;2023-08-06T10:28:54;100668.56;;;16.23;100.00
68230;BME280;55048;52.220;5.160;2023-08-06T10:31:43;100651.72;;;16.13;100.00
68230;BME280;55048;52.220;5.160;2023-08-06T10:34:05;100669.09;;;16.20;100.00
68230;BME280;55048;52.220;5.160;2023-08-06T10:36:31;100657.25;;;16.26;100.00
68230;BME280;55048;52.220;5.160;2023-08-06T10:38:58;100660.47;;;16.28;100.00
68230;BME280;55048;52.220;5.160;2023-08-06T10:41:30;100666.16;;;16.17;100.00
68230;BME280;55048;52.220;5.160;2023-08-06T10:44:05;100669.63;;;16.22;100.00
68230;BME280;55048;52.220;5.160;2023-08-06T10:46:32;100661.84;;;16.21;100.00
68230;BME280;55048;52.220;5.160;2023-08-06T10:48:58;100671.00;;;16.20;100.00
68230;BME280;55048;52.220;5.160;2023-08-06T10:51:23;100661.00;;;16.30;100.00
68230;BME280;55048;52.220;5.160;2023-08-06T10:53:49;100662.88;;;16.30;100.00
68230;BME280;55048;52.220;5.160;2023-08-06T10:56:25;100667.91;;;16.37;100.00
68230;BME280;55048;52.220;5.160;2023-08-06T10:58:53;100684.75;;;16.52;100.00
68230;BME280;55048;52.220;5.160;2023-08-06T11:01:19;100685.00;;;16.56;100.00
68230;BME280;55048;52.220;5.160;2023-08-06T11:03:47;100688.19;;;16.58;100.00
68230;BME280;55048;52.220;5.160;2023-08-06T11:06:21;100683.94;;;16.52;100.00
68230;BME280;55048;52.220;5.160;2023-08-06T11:08:49;100687.38;;;16.57;100.00
68230;BME280;55048;52.220;5.160;2023-08-06T11:11:15;100687.63;;;16.61;100.00
68230;BME280;55048;52.220;5.160;2023-08-06T11:13:47;100693.25;;;16.65;100.00
68230;BME280;55048;52.220;5.160;2023-08-06T11:16:17;100676.88;;;16.61;100.00
68230;BME280;55048;52.220;5.160;2023-08-06T11:18:43;100686.03;;;16.55;100.00
68230;BME280;55048;52.220;5.160;2023-08-06T11:21:08;100702.16;;;16.60;100.00
68230;BME280;55048;52.220;5.160;2023-08-06T11:23:35;100696.78;;;16.60;100.00
68230;BME280;55048;52.220;5.160;2023-08-06T11:26:00;100697.16;;;16.43;100.00
68230;BME280;55048;52.220;5.160;2023-08-06T11:28:26;100691.81;;;16.38;100.00
68230;BME280;55048;52.220;5.160;2023-08-06T11:30:52;100669.91;;;16.21;100.00
68230;BME280;55048;52.220;5.160;2023-08-06T11:33:22;100702.84;;;16.31;100.00
68230;BME280;55048;52.220;5.160;2023-08-06T11:35:48;100716.69;;;16.49;100.00
68230;BME280;55048;52.220;5.160;2023-08-06T11:38:14;100694.44;;;16.48;100.00
68230;BME280;55048;52.220;5.160;2023-08-06T11:40:39;100690.16;;;16.47;100.00
68230;BME280;55048;52.220;5.160;2023-08-06T11:43:08;100709.41;;;16.54;100.00
68230;BME280;55048;52.220;5.160;2023-08-06T11:45:37;100707.53;;;16.55;100.00
68230;BME280;55048;52.220;5.160;2023-08-06T11:48:03;100705.09;;;16.58;100.00
68230;BME280;55048;52.220;5.160;2023-08-06T11:50:29;100713.34;;;16.72;100.00
68230;BME280;55048;52.220;5.160;2023-08-06T11:53:00;100717.91;;;16.72;100.00
68230;BME280;55048;52.220;5.160;2023-08-06T11:55:27;100717.38;;;16.75;100.00
68230;BME280;55048;52.220;5.160;2023-08-06T11:57:56;100723.25;;;16.77;100.00
68230;BME280;55048;52.220;5.160;2023-08-06T12:00:24;100712.25;;;16.68;100.00
68230;BME280;55048;52.220;5.160;2023-08-06T12:02:50;100717.13;;;16.66;100.00
68230;BME280;55048;52.220;5.160;2023-08-06T12:05:28;100723.50;;;16.80;100.00
68230;BME280;55048;52.220;5.160;2023-08-06T12:07:58;100724.78;;;16.88;100.00
68230;BME280;55048;52.220;5.160;2023-08-06T12:10:26;100727.19;;;16.90;100.00
68230;BME280;55048;52.220;5.160;2023-08-06T12:12:53;100724.47;;;16.95;100.00
68230;BME280;55048;52.220;5.160;2023-08-06T12:15:18;100710.53;;;16.88;100.00
68230;BME280;55048;52.220;5.160;2023-08-06T12:17:44;100730.53;;;17.05;100.00
68230;BME280;55048;52.220;5.160;2023-08-06T12:20:10;100735.84;;;17.11;100.00
68230;BME280;55048;52.220;5.160;2023-08-06T12:22:36;100732.38;;;17.10;100.00
68230;BME280;55048;52.220;5.160;2023-08-06T12:25:05;100735.31;;;17.14;100.00
68230;BME280;55048;52.220;5.160;2023-08-06T12:27:34;100700.88;;;16.87;100.00
68230;BME280;55048;52.220;5.160;2023-08-06T12:30:00;100737.66;;;17.20;100.00
68230;BME280;55048;52.220;5.160;2023-08-06T12:32:26;100737.06;;;17.28;100.00
68230;BME280;55048;52.220;5.160;2023-08-06T12:34:51;100716.00;;;17.12;100.00
68230;BME280;55048;52.220;5.160;2023-08-06T12:37:17;100736.59;;;17.21;100.00
68230;BME280;55048;52.220;5.160;2023-08-06T12:39:42;100730.13;;;17.22;100.00
68230;BME280;55048;52.220;5.160;2023-08-06T12:42:07;100744.75;;;17.40;100.00
68230;BME280;55048;52.220;5.160;2023-08-06T12:44:33;100729.78;;;17.29;100.00
68230;BME280;55048;52.220;5.160;2023-08-06T12:46:59;100752.81;;;17.40;100.00